createdAt,value
2017-11-15T00:00:31.854Z,8.10
2017-11-15T00:01:34.410Z,8.20
2017-11-15T00:02:37.334Z,8.10
2017-11-15T00:03:40.671Z,8.10
2017-11-15T00:04:43.144Z,8.10
2017-11-15T00:05:45.729Z,8.10
2017-11-15T00:06:49.068Z,8.10
2017-11-15T00:07:51.696Z,8.10
2017-11-15T00:08:54.219Z,8.10
2017-11-15T00:09:56.857Z,8.10
2017-11-15T00:11:00.369Z,8.10
2017-11-15T00:12:02.974Z,8.10
2017-11-15T00:13:05.470Z,8.00
2017-11-15T00:14:08.948Z,8.10
2017-11-15T00:15:11.794Z,8.10
2017-11-15T00:16:14.394Z,8.10
2017-11-15T00:17:17.673Z,8.10
2017-11-15T00:18:21.133Z,8.10
2017-11-15T00:19:23.618Z,8.10
2017-11-15T00:20:27.096Z,8.10
2017-11-15T00:21:29.633Z,8.10
2017-11-15T00:22:37.116Z,8.10
2017-11-15T00:23:39.621Z,8.10
2017-11-15T00:24:42.377Z,8.10
2017-11-15T00:25:44.836Z,8.10
2017-11-15T00:26:47.409Z,8.10
2017-11-15T00:27:49.885Z,8.10
2017-11-15T00:28:53.349Z,8.10
2017-11-15T00:29:55.850Z,8.10
2017-11-15T00:30:59.890Z,8.10
2017-11-15T00:32:02.374Z,8.10
2017-11-15T00:33:04.961Z,8.10
2017-11-15T00:34:08.223Z,8.10
2017-11-15T00:35:10.901Z,8.10
2017-11-15T00:36:13.382Z,8.10
2017-11-15T00:37:17.469Z,8.10
2017-11-15T00:38:19.969Z,8.10
2017-11-15T00:39:23.535Z,8.10
2017-11-15T00:40:26.110Z,8.10
2017-11-15T00:41:29.361Z,8.20
2017-11-15T00:42:31.874Z,8.10
2017-11-15T00:43:35.315Z,8.10
2017-11-15T00:44:37.816Z,8.10
2017-11-15T00:45:41.885Z,8.20
2017-11-15T00:46:44.433Z,8.20
2017-11-15T00:47:47.228Z,8.20
2017-11-15T00:48:49.945Z,8.20
2017-11-15T00:49:53.193Z,8.10
2017-11-15T00:50:55.693Z,8.10
2017-11-15T00:51:59.130Z,8.20
2017-11-15T00:53:01.606Z,8.20
2017-11-15T00:54:04.209Z,8.10
2017-11-15T00:55:07.442Z,8.10
2017-11-15T00:56:10.117Z,8.10
2017-11-15T00:57:13.452Z,8.10
2017-11-15T00:58:16.685Z,8.10
2017-11-15T00:59:19.188Z,8.00
2017-11-15T01:00:22.635Z,8.10
2017-11-15T01:01:25.121Z,8.10
2017-11-15T01:02:27.681Z,8.10
2017-11-15T01:03:30.143Z,8.10
2017-11-15T01:04:32.697Z,8.10
2017-11-15T01:05:35.204Z,8.10
2017-11-15T01:06:38.666Z,8.10
2017-11-15T01:07:41.145Z,8.10
2017-11-15T01:08:43.692Z,8.10
2017-11-15T01:09:46.188Z,8.10
2017-11-15T01:10:49.618Z,8.10
2017-11-15T01:11:52.097Z,8.10
2017-11-15T01:12:54.665Z,8.10
2017-11-15T01:13:57.161Z,8.10
2017-11-15T01:14:59.700Z,8.10
2017-11-15T01:16:02.207Z,8.10
2017-11-15T01:17:05.645Z,8.10
2017-11-15T01:18:08.139Z,8.00
2017-11-15T01:19:12.535Z,8.10
2017-11-15T01:20:15.019Z,8.10
2017-11-15T01:21:18.514Z,8.10
2017-11-15T01:22:21.052Z,8.10
2017-11-15T01:23:23.529Z,8.10
2017-11-15T01:24:25.997Z,8.10
2017-11-15T01:25:30.085Z,8.00
2017-11-15T01:26:32.594Z,8.00
2017-11-15T01:27:36.103Z,8.00
2017-11-15T01:28:38.586Z,8.10
2017-11-15T01:29:41.070Z,8.10
2017-11-15T01:30:43.537Z,8.10
2017-11-15T01:31:46.097Z,8.10
2017-11-15T01:32:48.611Z,8.10
2017-11-15T01:33:52.054Z,8.10
2017-11-15T01:34:54.553Z,8.10
2017-11-15T01:35:58.001Z,8.10
2017-11-15T01:37:00.469Z,8.10
2017-11-15T01:38:03.049Z,8.10
2017-11-15T01:39:05.542Z,8.10
2017-11-15T01:40:08.061Z,8.10
2017-11-15T01:41:10.982Z,8.10
2017-11-15T01:42:14.319Z,8.20
2017-11-15T01:43:16.793Z,8.10
2017-11-15T01:44:19.361Z,8.10
2017-11-15T01:45:21.835Z,8.10
2017-11-15T01:46:24.510Z,8.20
2017-11-15T01:47:27.745Z,8.10
2017-11-15T01:48:30.351Z,8.10
2017-11-15T01:49:32.830Z,8.10
2017-11-15T01:50:35.388Z,8.10
2017-11-15T01:51:38.828Z,8.20
2017-11-15T01:52:41.317Z,8.10
2017-11-15T01:53:43.811Z,8.20
2017-11-15T01:54:47.288Z,8.20
2017-11-15T01:55:49.763Z,8.20
2017-11-15T01:56:53.867Z,8.10
2017-11-15T01:57:57.116Z,8.10
2017-11-15T01:58:59.863Z,8.10
2017-11-15T02:00:02.390Z,8.10
2017-11-15T02:01:13.859Z,8.10
2017-11-15T02:02:16.428Z,8.10
2017-11-15T02:03:19.106Z,8.10
2017-11-15T02:04:21.578Z,8.10
2017-11-15T02:05:24.167Z,8.10
2017-11-15T02:06:27.487Z,8.10
2017-11-15T02:07:30.170Z,8.10
2017-11-15T02:08:32.637Z,8.10
2017-11-15T02:09:35.102Z,8.10
2017-11-15T02:10:37.572Z,8.10
2017-11-15T02:11:40.175Z,8.10
2017-11-15T02:12:43.410Z,8.20
2017-11-15T02:13:46.118Z,8.10
2017-11-15T02:14:49.362Z,8.20
2017-11-15T02:15:52.053Z,8.20
2017-11-15T02:16:55.439Z,8.20
2017-11-15T02:17:59.536Z,8.20
2017-11-15T02:19:02.071Z,8.20
2017-11-15T02:20:04.548Z,8.20
2017-11-15T02:21:07.037Z,8.20
2017-11-15T02:22:09.591Z,8.20
2017-11-15T02:23:13.623Z,8.20
2017-11-15T02:24:17.078Z,8.20
2017-11-15T02:25:20.339Z,8.10
2017-11-15T02:26:23.025Z,8.10
2017-11-15T02:27:25.605Z,8.10
2017-11-15T02:28:28.508Z,8.10
2017-11-15T02:29:31.752Z,8.10
2017-11-15T02:30:34.317Z,8.10
2017-11-15T02:31:36.799Z,8.10
2017-11-15T02:32:39.342Z,8.10
2017-11-15T02:33:42.022Z,8.10
2017-11-15T02:34:44.719Z,8.10
2017-11-15T02:35:47.205Z,8.10
2017-11-15T02:36:50.756Z,8.10
2017-11-15T02:37:53.239Z,8.10
2017-11-15T02:38:56.607Z,8.10
2017-11-15T02:39:59.100Z,8.10
2017-11-15T02:41:02.576Z,8.20
2017-11-15T02:42:06.585Z,8.10
2017-11-15T02:43:10.038Z,8.10
2017-11-15T02:44:12.551Z,8.10
2017-11-15T02:45:16.081Z,8.00
2017-11-15T02:46:18.590Z,8.00
2017-11-15T02:47:21.951Z,8.00
2017-11-15T02:48:24.431Z,8.00
2017-11-15T02:49:26.961Z,8.00
2017-11-15T02:50:30.501Z,8.00
2017-11-15T02:51:33.835Z,8.00
2017-11-15T02:52:36.358Z,8.00
2017-11-15T02:53:39.808Z,8.10
2017-11-15T02:54:42.319Z,8.10
2017-11-15T02:55:45.738Z,8.10
2017-11-15T02:56:48.227Z,8.10
2017-11-15T02:57:50.853Z,8.10
2017-11-15T02:58:53.336Z,8.20
2017-11-15T02:59:55.827Z,8.10
2017-11-15T03:00:58.332Z,8.10
2017-11-15T03:02:01.774Z,8.10
2017-11-15T03:03:04.269Z,8.20
2017-11-15T03:04:06.811Z,8.20
2017-11-15T03:05:09.332Z,8.20
2017-11-15T03:06:11.878Z,8.10
2017-11-15T03:07:15.129Z,8.00
2017-11-15T03:08:17.866Z,8.00
2017-11-15T03:09:20.342Z,8.00
2017-11-15T03:10:22.908Z,8.00
2017-11-15T03:11:25.441Z,8.00
2017-11-15T03:12:28.866Z,8.10
2017-11-15T03:13:31.335Z,8.10
2017-11-15T03:14:34.342Z,8.10
2017-11-15T03:15:36.811Z,8.10
2017-11-15T03:16:39.541Z,8.00
2017-11-15T03:17:42.143Z,8.00
2017-11-15T03:18:44.921Z,8.00
2017-11-15T03:19:47.391Z,8.00
2017-11-15T03:20:50.834Z,8.00
2017-11-15T03:21:53.531Z,8.00
2017-11-15T03:22:56.059Z,7.90
2017-11-15T03:23:58.872Z,8.00
2017-11-15T03:25:01.377Z,8.00
2017-11-15T03:26:04.197Z,8.00
2017-11-15T03:27:06.687Z,8.00
2017-11-15T03:28:09.246Z,8.00
2017-11-15T03:29:11.760Z,8.00
2017-11-15T03:30:14.575Z,8.00
2017-11-15T03:31:17.886Z,8.00
2017-11-15T03:32:21.487Z,8.00
2017-11-15T03:33:24.754Z,8.00
2017-11-15T03:34:28.317Z,8.00
2017-11-15T03:35:30.932Z,8.00
2017-11-15T03:36:33.645Z,8.00
2017-11-15T03:37:36.134Z,8.10
2017-11-15T03:38:38.703Z,8.00
2017-11-15T03:39:42.100Z,8.00
2017-11-15T03:40:46.167Z,8.00
2017-11-15T03:41:48.653Z,8.00
2017-11-15T03:42:52.160Z,8.00
2017-11-15T03:43:55.403Z,7.90
2017-11-15T03:44:58.094Z,7.90
2017-11-15T03:46:01.386Z,7.90
2017-11-15T03:47:04.021Z,7.90
2017-11-15T03:48:06.495Z,7.90
2017-11-15T03:49:09.029Z,7.90
2017-11-15T03:50:12.281Z,7.90
2017-11-15T03:51:15.621Z,7.90
2017-11-15T03:52:18.110Z,7.90
2017-11-15T03:53:20.657Z,7.90
2017-11-15T03:54:23.145Z,8.00
2017-11-15T03:55:25.715Z,8.00
2017-11-15T03:56:28.186Z,8.00
2017-11-15T03:57:31.625Z,8.00
2017-11-15T03:58:34.126Z,8.00
2017-11-15T03:59:36.668Z,7.90
2017-11-15T04:00:40.202Z,7.90
2017-11-15T04:01:43.615Z,8.00
2017-11-15T04:02:46.093Z,7.90
2017-11-15T04:03:48.893Z,7.90
2017-11-15T04:04:51.377Z,7.90
2017-11-15T04:05:53.981Z,7.90
2017-11-15T04:06:56.505Z,8.00
2017-11-15T04:07:59.277Z,8.00
2017-11-15T04:09:02.573Z,8.00
2017-11-15T04:10:05.205Z,8.00
2017-11-15T04:11:07.709Z,8.00
2017-11-15T04:12:11.206Z,8.00
2017-11-15T04:13:14.474Z,8.10
2017-11-15T04:14:18.058Z,8.00
2017-11-15T04:15:20.546Z,8.00
2017-11-15T04:16:23.984Z,8.00
2017-11-15T04:17:26.464Z,8.00
2017-11-15T04:18:29.056Z,8.00
2017-11-15T04:19:32.340Z,8.00
2017-11-15T04:20:35.895Z,8.10
2017-11-15T04:21:38.379Z,8.00
2017-11-15T04:22:41.774Z,8.00
2017-11-15T04:23:44.284Z,8.00
2017-11-15T04:24:46.880Z,8.00
2017-11-15T04:25:49.346Z,8.00
2017-11-15T04:26:51.916Z,8.00
2017-11-15T04:27:55.919Z,8.00
2017-11-15T04:28:58.516Z,8.00
2017-11-15T04:30:00.989Z,8.00
2017-11-15T04:31:04.421Z,8.00
2017-11-15T04:32:06.893Z,8.00
2017-11-15T04:33:09.468Z,8.00
2017-11-15T04:34:11.991Z,8.00
2017-11-15T04:35:14.869Z,8.00
2017-11-15T04:36:17.350Z,8.00
2017-11-15T04:37:20.135Z,7.90
2017-11-15T04:38:22.604Z,7.90
2017-11-15T04:39:25.351Z,7.90
2017-11-15T04:40:28.222Z,7.90
2017-11-15T04:41:31.381Z,7.90
2017-11-15T04:42:34.608Z,8.00
2017-11-15T04:43:37.413Z,8.00
2017-11-15T04:44:39.934Z,8.00
2017-11-15T04:45:43.046Z,8.00
2017-11-15T04:46:45.525Z,8.00
2017-11-15T04:47:48.075Z,8.00
2017-11-15T04:48:50.564Z,8.00
2017-11-15T04:49:54.002Z,8.00
2017-11-15T04:50:56.473Z,8.00
2017-11-15T04:51:59.033Z,8.00
2017-11-15T04:53:01.566Z,8.00
2017-11-15T04:54:04.948Z,8.00
2017-11-15T04:55:08.214Z,8.10
2017-11-15T04:56:11.014Z,8.10
2017-11-15T04:57:13.496Z,8.10
2017-11-15T04:58:16.320Z,8.10
2017-11-15T04:59:19.561Z,8.10
2017-11-15T05:00:22.264Z,8.10
2017-11-15T05:01:25.521Z,8.10
2017-11-15T05:02:28.204Z,8.10
2017-11-15T05:03:30.696Z,8.10
2017-11-15T05:04:34.152Z,8.10
2017-11-15T05:05:36.627Z,8.10
2017-11-15T05:06:41.029Z,8.10
2017-11-15T05:07:43.589Z,8.10
2017-11-15T05:08:46.420Z,8.20
2017-11-15T05:09:48.929Z,8.10
2017-11-15T05:10:51.708Z,8.10
2017-11-15T05:11:54.175Z,8.00
2017-11-15T05:12:56.728Z,8.10
2017-11-15T05:13:59.221Z,8.10
2017-11-15T05:15:01.796Z,8.00
2017-11-15T05:16:04.294Z,8.00
2017-11-15T05:17:07.138Z,8.10
2017-11-15T05:18:10.412Z,8.00
2017-11-15T05:19:13.070Z,8.00
2017-11-15T05:20:15.573Z,7.90
2017-11-15T05:21:18.993Z,7.90
2017-11-15T05:22:21.490Z,7.90
2017-11-15T05:23:24.048Z,8.00
2017-11-15T05:24:26.530Z,7.90
2017-11-15T05:25:29.106Z,8.00
2017-11-15T05:26:32.865Z,7.90
2017-11-15T05:27:35.637Z,7.90
2017-11-15T05:28:38.114Z,7.90
2017-11-15T05:29:40.677Z,7.90
2017-11-15T05:30:43.146Z,7.90
2017-11-15T05:31:46.668Z,7.90
2017-11-15T05:32:49.973Z,7.90
2017-11-15T05:33:52.606Z,7.90
2017-11-15T05:34:55.099Z,7.90
2017-11-15T05:35:57.947Z,7.90
2017-11-15T05:37:01.215Z,7.90
2017-11-15T05:38:03.861Z,7.90
2017-11-15T05:39:06.425Z,7.90
2017-11-15T05:40:09.189Z,7.90
2017-11-15T05:41:11.692Z,7.90
2017-11-15T05:42:14.262Z,7.90
2017-11-15T05:43:16.754Z,7.90
2017-11-15T05:44:19.272Z,7.90
2017-11-15T05:45:23.321Z,7.80
2017-11-15T05:46:26.781Z,7.80
2017-11-15T05:47:30.788Z,7.80
2017-11-15T05:48:34.125Z,7.80
2017-11-15T05:49:36.619Z,7.80
2017-11-15T05:50:39.306Z,7.80
2017-11-15T05:51:41.787Z,7.90
2017-11-15T05:52:45.273Z,7.90
2017-11-15T05:53:48.519Z,7.90
2017-11-15T05:54:51.163Z,7.90
2017-11-15T05:55:53.637Z,7.90
2017-11-15T05:56:56.215Z,7.90
2017-11-15T05:57:58.716Z,7.90
2017-11-15T05:59:02.188Z,7.80
2017-11-15T06:00:04.678Z,7.80
2017-11-15T06:01:08.118Z,7.80
2017-11-15T06:02:10.613Z,7.80
2017-11-15T06:03:13.205Z,7.80
2017-11-15T06:04:15.675Z,7.80
2017-11-15T06:05:18.216Z,7.80
2017-11-15T06:06:21.458Z,7.90
2017-11-15T06:07:24.112Z,7.80
2017-11-15T06:08:26.638Z,7.80
2017-11-15T06:09:30.178Z,7.80
2017-11-15T06:10:32.717Z,7.80
2017-11-15T06:11:35.473Z,7.90
2017-11-15T06:12:38.743Z,7.80
2017-11-15T06:13:41.396Z,7.80
2017-11-15T06:14:44.707Z,7.80
2017-11-15T06:15:47.376Z,7.80
2017-11-15T06:16:50.683Z,7.80
2017-11-15T06:17:54.909Z,7.80
2017-11-15T06:18:57.435Z,7.80
2017-11-15T06:20:00.245Z,7.80
2017-11-15T06:21:02.674Z,7.80
2017-11-15T06:22:05.579Z,7.80
2017-11-15T06:23:08.167Z,7.80
2017-11-15T06:24:10.913Z,7.80
2017-11-15T06:25:13.428Z,7.80
2017-11-15T06:26:16.395Z,7.90
2017-11-15T06:27:20.405Z,7.80
2017-11-15T06:28:23.057Z,7.80
2017-11-15T06:29:25.653Z,7.80
2017-11-15T06:30:28.204Z,7.80
2017-11-15T06:31:30.672Z,7.80
2017-11-15T06:32:34.154Z,7.90
2017-11-15T06:33:36.761Z,7.80
2017-11-15T06:34:39.350Z,7.90
2017-11-15T06:35:41.848Z,7.90
2017-11-15T06:36:44.424Z,7.90
2017-11-15T06:37:46.977Z,8.00
2017-11-15T06:38:49.858Z,8.00
2017-11-15T06:39:52.329Z,8.00
2017-11-15T06:40:56.606Z,8.00
2017-11-15T06:41:59.121Z,8.00
2017-11-15T06:43:02.575Z,8.00
2017-11-15T06:44:05.047Z,8.00
2017-11-15T06:45:07.602Z,8.00
2017-11-15T06:46:10.068Z,8.00
2017-11-15T06:47:12.680Z,8.00
2017-11-15T06:48:15.191Z,8.10
2017-11-15T06:49:18.090Z,8.10
2017-11-15T06:50:22.077Z,8.10
2017-11-15T06:51:24.856Z,8.10
2017-11-15T06:52:27.360Z,8.10
2017-11-15T06:53:30.821Z,8.10
2017-11-15T06:54:34.050Z,8.20
2017-11-15T06:55:36.761Z,8.20
2017-11-15T06:56:39.253Z,8.20
2017-11-15T06:57:42.701Z,8.20
2017-11-15T06:58:46.709Z,8.20
2017-11-15T06:59:49.289Z,8.20
2017-11-15T07:00:53.276Z,8.20
2017-11-15T07:01:55.855Z,8.20
2017-11-15T07:02:58.364Z,8.20
2017-11-15T07:04:00.862Z,8.20
2017-11-15T07:05:03.342Z,8.30
2017-11-15T07:06:05.939Z,8.30
2017-11-15T07:07:09.184Z,8.30
2017-11-15T07:08:11.845Z,8.30
2017-11-15T07:09:14.404Z,8.30
2017-11-15T07:10:17.294Z,8.30
2017-11-15T07:11:19.782Z,8.30
2017-11-15T07:12:24.093Z,8.30
2017-11-15T07:13:26.570Z,8.30
2017-11-15T07:14:30.010Z,8.40
2017-11-15T07:15:32.505Z,8.40
2017-11-15T07:16:36.577Z,8.40
2017-11-15T07:17:39.058Z,8.40
2017-11-15T07:18:41.606Z,8.40
2017-11-15T07:19:44.137Z,8.40
2017-11-15T07:20:47.568Z,8.40
2017-11-15T07:21:50.086Z,8.40
2017-11-15T07:22:53.547Z,8.40
2017-11-15T07:23:56.016Z,8.40
2017-11-15T07:24:58.542Z,8.50
2017-11-15T07:26:01.042Z,8.40
2017-11-15T07:27:05.160Z,8.40
2017-11-15T07:28:07.690Z,8.40
2017-11-15T07:29:10.480Z,8.40
2017-11-15T07:30:14.938Z,8.50
2017-11-15T07:31:17.683Z,8.50
2017-11-15T07:32:20.953Z,8.40
2017-11-15T07:33:24.310Z,8.40
2017-11-15T07:34:27.028Z,8.50
2017-11-15T07:35:30.761Z,8.50
2017-11-15T07:36:33.268Z,8.40
2017-11-15T07:37:35.813Z,8.50
2017-11-15T07:38:38.338Z,8.50
2017-11-15T07:39:40.840Z,8.50
2017-11-15T07:40:43.318Z,8.60
2017-11-15T07:41:45.869Z,8.50
2017-11-15T07:42:48.353Z,8.50
2017-11-15T07:43:50.921Z,8.60
2017-11-15T07:44:54.173Z,8.50
2017-11-15T07:45:56.870Z,8.50
2017-11-15T07:46:59.346Z,8.50
2017-11-15T07:48:03.283Z,8.50
2017-11-15T07:49:05.801Z,8.50
2017-11-15T07:50:10.469Z,8.50
2017-11-15T07:51:13.159Z,8.50
2017-11-15T07:52:16.944Z,8.50
2017-11-15T07:53:19.443Z,8.50
2017-11-15T07:54:22.822Z,8.50
2017-11-15T07:55:25.419Z,8.50
2017-11-15T07:56:28.198Z,8.50
2017-11-15T07:57:30.690Z,8.60
2017-11-15T07:58:33.482Z,8.60
2017-11-15T07:59:36.118Z,8.60
2017-11-15T08:00:39.478Z,8.60
2017-11-15T08:01:41.945Z,8.60
2017-11-15T08:02:45.406Z,8.70
2017-11-15T08:03:47.914Z,8.70
2017-11-15T08:04:50.442Z,8.70
2017-11-15T08:05:52.970Z,8.70
2017-11-15T08:06:55.476Z,8.80
2017-11-15T08:07:57.964Z,8.80
2017-11-15T08:09:01.695Z,8.90
2017-11-15T08:10:04.178Z,8.90
2017-11-15T08:11:07.100Z,9.00
2017-11-15T08:12:09.580Z,9.00
2017-11-15T08:13:13.068Z,9.10
2017-11-15T08:14:16.353Z,9.10
2017-11-15T08:15:19.904Z,9.10
2017-11-15T08:16:22.403Z,9.10
2017-11-15T08:17:25.872Z,9.10
2017-11-15T08:18:28.422Z,9.10
2017-11-15T08:19:31.185Z,9.10
2017-11-15T08:20:33.653Z,9.20
2017-11-15T08:21:36.245Z,9.20
2017-11-15T08:22:38.745Z,9.20
2017-11-15T08:23:41.254Z,9.20
2017-11-15T08:24:43.892Z,9.30
2017-11-15T08:25:47.222Z,9.30
2017-11-15T08:26:50.485Z,9.20
2017-11-15T08:27:53.233Z,9.20
2017-11-15T08:28:55.720Z,9.30
2017-11-15T08:29:58.518Z,9.30
2017-11-15T08:31:01.010Z,9.30
2017-11-15T08:32:04.856Z,9.40
2017-11-15T08:33:07.463Z,9.40
2017-11-15T08:34:11.025Z,9.40
2017-11-15T08:35:13.623Z,9.40
2017-11-15T08:36:17.015Z,9.30
2017-11-15T08:37:20.875Z,9.40
2017-11-15T08:38:23.835Z,9.40
2017-11-15T08:39:26.343Z,9.40
2017-11-15T08:40:28.882Z,9.40
2017-11-15T08:41:31.418Z,9.40
2017-11-15T08:42:34.382Z,9.40
2017-11-15T08:43:37.823Z,9.40
2017-11-15T08:44:40.543Z,9.40
2017-11-15T08:45:43.623Z,9.40
2017-11-15T08:46:46.465Z,9.40
2017-11-15T08:47:49.371Z,9.40
2017-11-15T08:48:52.069Z,9.40
2017-11-15T08:49:54.742Z,9.40
2017-11-15T08:50:57.423Z,9.50
2017-11-15T08:51:59.926Z,9.50
2017-11-15T08:53:03.476Z,9.60
2017-11-15T08:54:06.364Z,9.60
2017-11-15T08:55:10.047Z,9.70
2017-11-15T08:56:12.565Z,9.70
2017-11-15T08:57:15.296Z,9.70
2017-11-15T08:58:17.878Z,9.70
2017-11-15T08:59:21.610Z,9.70
2017-11-15T09:00:24.086Z,9.60
2017-11-15T09:01:26.936Z,9.60
2017-11-15T09:02:29.472Z,9.60
2017-11-15T09:03:32.495Z,9.60
2017-11-15T09:04:35.122Z,9.40
2017-11-15T09:05:38.521Z,9.40
2017-11-15T09:06:42.041Z,9.40
2017-11-15T09:07:44.851Z,9.40
2017-11-15T09:08:47.364Z,9.40
2017-11-15T09:09:50.097Z,9.40
2017-11-15T09:10:52.598Z,9.40
2017-11-15T09:11:55.521Z,9.40
2017-11-15T09:12:58.534Z,9.50
2017-11-15T09:14:02.022Z,9.60
2017-11-15T09:15:05.282Z,9.70
2017-11-15T09:16:08.884Z,9.70
2017-11-15T09:17:12.169Z,9.70
2017-11-15T09:18:15.769Z,9.70
2017-11-15T09:19:19.028Z,9.70
2017-11-15T09:20:21.709Z,9.60
2017-11-15T09:21:24.227Z,9.60
2017-11-15T09:22:27.426Z,9.70
2017-11-15T09:23:29.932Z,9.70
2017-11-15T09:24:33.238Z,9.80
2017-11-15T09:25:35.941Z,9.80
2017-11-15T09:26:39.562Z,9.70
2017-11-15T09:27:42.755Z,9.70
2017-11-15T09:28:45.600Z,9.70
2017-11-15T09:29:48.099Z,9.70
2017-11-15T09:30:51.480Z,9.90
2017-11-15T09:31:54.270Z,9.80
2017-11-15T09:32:57.705Z,9.90
2017-11-15T09:34:00.425Z,9.90
2017-11-15T09:35:03.318Z,10.00
2017-11-15T09:36:05.858Z,10.00
2017-11-15T09:37:09.102Z,10.10
2017-11-15T09:38:12.814Z,10.10
2017-11-15T09:39:15.591Z,10.10
2017-11-15T09:40:18.864Z,10.20
2017-11-15T09:41:21.568Z,10.20
2017-11-15T09:42:24.841Z,10.40
2017-11-15T09:43:27.473Z,10.40
2017-11-15T09:44:29.970Z,10.60
2017-11-15T09:45:32.792Z,10.70
2017-11-15T09:46:35.312Z,11.00
2017-11-15T09:47:38.894Z,11.30
2017-11-15T09:48:41.373Z,11.30
2017-11-15T09:49:44.756Z,11.60
2017-11-15T09:50:48.038Z,11.60
2017-11-15T09:51:51.616Z,11.60
2017-11-15T09:52:54.108Z,11.60
2017-11-15T09:53:57.568Z,11.70
2017-11-15T09:55:00.061Z,11.70
2017-11-15T09:56:02.586Z,11.80
2017-11-15T09:57:05.097Z,11.90
2017-11-15T09:58:08.542Z,12.10
2017-11-15T09:59:11.028Z,12.10
2017-11-15T10:00:14.531Z,12.10
2017-11-15T10:01:17.812Z,12.10
2017-11-15T10:02:21.385Z,12.20
2017-11-15T10:03:23.874Z,12.20
2017-11-15T10:04:27.324Z,12.30
2017-11-15T10:05:31.319Z,12.30
2017-11-15T10:06:33.819Z,12.30
2017-11-15T10:07:37.127Z,12.40
2017-11-15T10:08:39.846Z,12.40
2017-11-15T10:09:43.114Z,12.30
2017-11-15T10:10:45.851Z,12.30
2017-11-15T10:11:48.353Z,12.40
2017-11-15T10:12:51.126Z,12.40
2017-11-15T10:13:53.653Z,12.30
2017-11-15T10:14:57.386Z,12.40
2017-11-15T10:15:59.879Z,12.40
2017-11-15T10:17:04.509Z,12.50
2017-11-15T10:18:07.021Z,12.40
2017-11-15T10:19:09.606Z,12.40
2017-11-15T10:20:12.116Z,12.20
2017-11-15T10:21:15.902Z,12.20
2017-11-15T10:22:19.166Z,12.20
2017-11-15T10:23:21.815Z,12.10
2017-11-15T10:24:24.317Z,12.10
2017-11-15T10:25:27.784Z,12.20
2017-11-15T10:26:30.254Z,12.20
2017-11-15T10:27:32.745Z,12.20
2017-11-15T10:28:35.237Z,12.20
2017-11-15T10:29:37.859Z,12.30
2017-11-15T10:30:40.327Z,12.30
2017-11-15T10:31:43.842Z,12.60
2017-11-15T10:32:46.324Z,12.60
2017-11-15T10:33:48.833Z,12.70
2017-11-15T10:34:51.331Z,12.70
2017-11-15T10:35:53.860Z,12.90
2017-11-15T10:36:56.357Z,13.00
2017-11-15T10:37:59.798Z,12.80
2017-11-15T10:39:02.310Z,12.80
2017-11-15T10:40:05.774Z,12.60
2017-11-15T10:41:08.267Z,12.60
2017-11-15T10:42:11.716Z,12.60
2017-11-15T10:43:15.823Z,12.50
2017-11-15T10:44:18.618Z,12.50
2017-11-15T10:45:21.887Z,12.50
2017-11-15T10:46:24.546Z,12.50
2017-11-15T10:47:27.034Z,12.50
2017-11-15T10:48:30.495Z,12.40
2017-11-15T10:49:33.056Z,12.40
2017-11-15T10:50:36.757Z,12.50
2017-11-15T10:51:39.250Z,12.50
2017-11-15T10:52:42.762Z,12.40
2017-11-15T10:53:45.262Z,12.40
2017-11-15T10:54:48.033Z,12.30
2017-11-15T10:55:50.526Z,12.30
2017-11-15T10:56:53.023Z,12.30
2017-11-15T10:57:56.796Z,12.30
2017-11-15T10:59:00.271Z,12.30
2017-11-15T11:00:02.791Z,12.20
2017-11-15T11:01:05.306Z,12.30
2017-11-15T11:02:07.811Z,12.20
2017-11-15T11:03:10.317Z,12.30
2017-11-15T11:04:12.837Z,12.20
2017-11-15T11:05:15.366Z,12.20
2017-11-15T11:06:17.904Z,12.10
2017-11-15T11:07:20.686Z,12.20
2017-11-15T11:08:23.186Z,12.10
2017-11-15T11:09:26.642Z,12.10
2017-11-15T11:10:29.150Z,12.00
2017-11-15T11:11:31.716Z,12.00
2017-11-15T11:12:35.016Z,11.90
2017-11-15T11:13:37.558Z,11.80
2017-11-15T11:14:40.863Z,11.80
2017-11-15T11:15:43.565Z,11.80
2017-11-15T11:16:46.257Z,11.90
2017-11-15T11:17:48.910Z,11.80
2017-11-15T11:18:51.445Z,11.70
2017-11-15T11:19:53.932Z,11.70
2017-11-15T11:20:56.416Z,11.70
2017-11-15T11:21:58.971Z,11.70
2017-11-15T11:23:01.498Z,11.80
2017-11-15T11:24:04.017Z,11.80
2017-11-15T11:25:06.492Z,11.80
2017-11-15T11:26:09.008Z,11.80
2017-11-15T11:27:12.308Z,11.90
2017-11-15T11:28:16.000Z,11.90
2017-11-15T11:29:18.530Z,11.90
2017-11-15T11:30:21.260Z,12.00
2017-11-15T11:31:23.780Z,12.00
2017-11-15T11:32:26.298Z,12.00
2017-11-15T11:33:28.794Z,12.10
2017-11-15T11:34:32.256Z,12.20
2017-11-15T11:35:34.737Z,12.20
2017-11-15T11:36:37.283Z,12.30
2017-11-15T11:37:40.629Z,12.30
2017-11-15T11:38:43.123Z,12.40
2017-11-15T11:39:45.598Z,12.40
2017-11-15T11:40:48.295Z,12.50
2017-11-15T11:41:51.564Z,12.30
2017-11-15T11:42:54.220Z,12.30
2017-11-15T11:43:56.716Z,12.30
2017-11-15T11:45:00.169Z,12.40
2017-11-15T11:46:02.680Z,12.40
2017-11-15T11:47:05.190Z,12.50
2017-11-15T11:48:07.684Z,12.50
2017-11-15T11:49:10.822Z,12.50
2017-11-15T11:50:13.322Z,12.50
2017-11-15T11:51:15.924Z,12.50
2017-11-15T11:52:18.437Z,12.50
2017-11-15T11:53:21.207Z,12.50
2017-11-15T11:54:24.786Z,12.50
2017-11-15T11:55:27.479Z,12.50
2017-11-15T11:56:30.006Z,12.50
2017-11-15T11:57:32.498Z,12.40
2017-11-15T11:58:34.997Z,12.30
2017-11-15T11:59:38.456Z,12.40
2017-11-15T12:00:40.965Z,12.40
2017-11-15T12:01:43.517Z,12.40
2017-11-15T12:02:46.780Z,12.20
2017-11-15T12:03:49.426Z,12.20
2017-11-15T12:04:51.926Z,12.30
2017-11-15T12:05:55.421Z,12.50
2017-11-15T12:06:59.596Z,12.50
2017-11-15T12:08:02.236Z,12.50
2017-11-15T12:09:04.787Z,12.60
2017-11-15T12:10:08.524Z,12.60
2017-11-15T12:11:11.052Z,12.60
2017-11-15T12:12:14.493Z,12.60
2017-11-15T12:13:17.027Z,12.60
2017-11-15T12:14:19.546Z,12.70
2017-11-15T12:15:22.812Z,12.60
2017-11-15T12:16:25.453Z,12.60
2017-11-15T12:17:27.936Z,12.50
2017-11-15T12:18:31.429Z,12.50
2017-11-15T12:19:34.702Z,12.30
2017-11-15T12:20:37.381Z,12.30
2017-11-15T12:21:39.921Z,12.30
2017-11-15T12:22:42.468Z,12.30
2017-11-15T12:23:44.993Z,12.10
2017-11-15T12:24:48.340Z,12.00
2017-11-15T12:25:50.845Z,12.10
2017-11-15T12:26:53.397Z,11.90
2017-11-15T12:27:56.010Z,11.80
2017-11-15T12:28:58.719Z,11.70
2017-11-15T12:30:01.388Z,11.60
2017-11-15T12:31:04.986Z,11.50
2017-11-15T12:32:07.490Z,11.50
2017-11-15T12:33:11.054Z,11.50
2017-11-15T12:34:13.789Z,11.50
2017-11-15T12:35:19.620Z,11.50
2017-11-15T12:36:22.108Z,11.30
2017-11-15T12:37:24.709Z,11.40
2017-11-15T12:38:28.037Z,11.30
2017-11-15T12:39:31.012Z,11.30
2017-11-15T12:40:33.546Z,11.30
2017-11-15T12:41:36.991Z,11.40
2017-11-15T12:42:39.496Z,11.40
2017-11-15T12:43:42.887Z,11.60
2017-11-15T12:44:46.139Z,11.50
2017-11-15T12:45:48.873Z,11.50
2017-11-15T12:46:52.610Z,11.50
2017-11-15T12:47:55.372Z,11.60
2017-11-15T12:48:57.875Z,11.70
2017-11-15T12:50:01.327Z,11.60
2017-11-15T12:51:03.826Z,11.60
2017-11-15T12:52:06.385Z,11.60
2017-11-15T12:53:09.661Z,11.60
2017-11-15T12:54:12.312Z,11.60
2017-11-15T12:55:14.929Z,11.60
2017-11-15T12:56:17.954Z,11.60
2017-11-15T12:57:20.452Z,11.60
2017-11-15T12:58:23.944Z,11.40
2017-11-15T12:59:27.917Z,11.40
2017-11-15T13:00:32.901Z,11.40
2017-11-15T13:01:35.436Z,11.40
2017-11-15T13:02:40.025Z,11.30
2017-11-15T13:03:44.954Z,11.30
2017-11-15T13:04:49.881Z,11.20
2017-11-15T13:05:53.175Z,11.20
2017-11-15T13:06:56.919Z,11.10
2017-11-15T13:07:59.427Z,11.10
2017-11-15T13:09:02.961Z,11.20
2017-11-15T13:10:06.565Z,11.10
2017-11-15T13:11:09.345Z,11.10
2017-11-15T13:12:12.459Z,11.20
2017-11-15T13:13:15.176Z,11.20
2017-11-15T13:14:18.002Z,11.20
2017-11-15T13:15:21.016Z,11.10
2017-11-15T13:16:23.510Z,11.10
2017-11-15T13:17:26.816Z,11.10
2017-11-15T13:18:29.425Z,11.10
2017-11-15T13:19:33.455Z,11.10
2017-11-15T13:20:38.238Z,11.10
2017-11-15T13:21:41.868Z,11.10
2017-11-15T13:22:44.896Z,11.10
2017-11-15T13:23:48.319Z,11.10
2017-11-15T13:24:50.836Z,11.10
2017-11-15T13:25:55.165Z,11.20
2017-11-15T13:26:59.195Z,11.30
2017-11-15T13:28:02.966Z,11.20
2017-11-15T13:29:05.463Z,11.30
2017-11-15T13:30:08.463Z,11.30
2017-11-15T13:31:11.162Z,11.30
2017-11-15T13:32:14.612Z,11.20
2017-11-15T13:33:17.265Z,11.20
2017-11-15T13:34:19.915Z,11.30
2017-11-15T13:35:22.425Z,11.30
2017-11-15T13:36:25.438Z,11.20
2017-11-15T13:37:28.749Z,11.10
2017-11-15T13:38:31.462Z,11.10
2017-11-15T13:39:33.976Z,11.00
2017-11-15T13:40:36.498Z,10.90
2017-11-15T13:41:40.705Z,10.90
2017-11-15T13:42:43.966Z,11.00
2017-11-15T13:43:46.476Z,11.00
2017-11-15T13:44:49.940Z,10.90
2017-11-15T13:45:52.616Z,10.90
2017-11-15T13:46:55.890Z,10.90
2017-11-15T13:47:58.388Z,10.90
2017-11-15T13:49:01.849Z,10.80